03:34 Rennrad Tschirgantrunde gross
Ort Moetz Datum 18.06.2017 10:53:36
Kategorie Rennrad
Distanz 112,67 Kilometer Steigung 960,0 Meter Gefälle -939,0 Meter
Gesamt Zeit 03:34:15 Aktiv 03:34:15 Pause 00:00:00
Durchs. Tempo 31,5 km/h Tempo max. 68,8 km/h Tempo min. 12,7 km/h
Kalorien 0 Durchs. HF 126 BPM HF max. 159 BPM
Wetter 24 °C Clear Min/Max: 21,0 °C/26,2 °C; Druck: 1018,6 mbar; Rel. Feuchte: 43,0%; Taupunkt: 10,3 °C; Windgeschwindigkeit: 11,5 km/h; Niederschlag: 0,0mm
Ausrüstung Bontrager - RXL Road
Scott - Addict 20
Notiz Moetz - Imst - Gurgltal - Holzleiten - Barwies - Pfaffenhofen - Doerfer - Voels - Zirl - Crazy Eddie - Moetz ... super Wetter, starker Wind in Richtung Imst - eher locker ... garmin connect
Splits
Distanz (km) Gesamt Zeit Split Zeit Split Tempo Split Tempo Höhenprofil (m)
1,00 00:02:10 00:02:10 00:02:10 27,6 -10,02
2,00 00:04:09 00:01:59 00:01:59 30,2 2,07
3,00 00:05:51 00:01:41 00:01:42 35,3 7,88
4,00 00:07:37 00:01:46 00:01:46 33,8 9,32
5,00 00:09:33 00:01:56 00:01:56 31,0 5,50
6,00 00:11:14 00:01:40 00:01:41 35,7 5,81
7,00 00:12:50 00:01:35 00:01:35 37,7 1,02
8,00 00:14:26 00:01:36 00:01:36 37,4 7,42
9,00 00:16:09 00:01:43 00:01:43 34,8 3,50
10,00 00:18:05 00:01:55 00:01:55 31,2 16,55
11,00 00:20:32 00:02:27 00:02:28 24,4 25,07
12,00 00:22:11 00:01:38 00:01:39 36,4 2,94
13,00 00:24:06 00:01:54 00:01:55 31,3 -1,03
14,00 00:25:35 00:01:28 00:01:29 40,6 -13,89
15,00 00:28:10 00:02:34 00:02:35 23,3 46,35
16,00 00:31:31 00:03:21 00:03:22 17,9 52,43
17,00 00:33:57 00:02:25 00:02:25 24,8 1,13
18,00 00:35:06 00:01:09 00:01:10 51,6 -32,43
19,00 00:36:23 00:01:17 00:01:17 46,7 -18,70
20,00 00:37:38 00:01:14 00:01:15 48,0 -32,40
21,00 00:40:19 00:02:40 00:02:41 22,4 34,63
22,00 00:42:46 00:02:27 00:02:27 24,5 24,21
23,00 00:45:35 00:02:48 00:02:49 21,4 46,99
24,00 00:47:29 00:01:54 00:01:54 31,5 -1,99
25,00 00:49:05 00:01:36 00:01:36 37,4 -19,00
26,00 00:50:38 00:01:32 00:01:33 38,7 -14,28
27,00 00:52:46 00:02:08 00:02:08 28,1 17,23
28,00 00:54:44 00:01:57 00:01:58 30,6 4,37
29,00 00:56:31 00:01:46 00:01:47 33,7 -3,11
30,00 00:58:36 00:02:04 00:02:05 28,9 1,39
31,00 01:00:23 00:01:47 00:01:48 33,3 2,59
32,00 01:02:43 00:02:19 00:02:20 25,8 10,57
33,00 01:04:36 00:01:52 00:01:53 31,9 -13,27
34,00 01:06:08 00:01:31 00:01:32 39,2 -9,04
35,00 01:09:00 00:02:52 00:02:52 20,9 46,92
36,00 01:12:38 00:03:37 00:03:38 16,5 57,21
37,00 01:16:13 00:03:34 00:03:35 16,8 50,21
38,00 01:19:44 00:03:31 00:03:31 17,1 57,47
39,00 01:22:54 00:03:10 00:03:11 18,9 35,83
40,00 01:25:34 00:02:39 00:02:40 22,6 29,53
41,00 01:28:21 00:02:47 00:02:47 21,5 27,04
42,00 01:29:27 00:01:05 00:01:05 55,1 -59,79
43,00 01:30:32 00:01:05 00:01:05 55,3 -47,51
44,00 01:31:52 00:01:20 00:01:21 44,5 -25,02
45,00 01:33:05 00:01:12 00:01:13 49,6 -48,71
46,00 01:34:06 00:01:00 00:01:01 59,1 -40,47
47,00 01:35:50 00:01:43 00:01:44 34,8 -16,85
48,00 01:37:40 00:01:50 00:01:51 32,5 -5,58
49,00 01:39:27 00:01:46 00:01:46 33,9 -5,73
50,00 01:41:05 00:01:38 00:01:39 36,4 -16,58
51,00 01:42:22 00:01:16 00:01:16 47,1 -40,92
52,00 01:43:45 00:01:22 00:01:23 43,6 -32,89
53,00 01:45:04 00:01:19 00:01:20 45,1 -31,12
54,00 01:46:29 00:01:24 00:01:24 42,7 -43,54
55,00 01:47:40 00:01:11 00:01:12 50,3 -52,94
56,00 01:49:25 00:01:44 00:01:44 34,5 -22,64
57,00 01:51:17 00:01:52 00:01:52 32,0 -1,10
58,00 01:53:25 00:02:07 00:02:08 28,2 10,29
59,00 01:55:34 00:02:09 00:02:09 27,9 -4,90
60,00 01:57:27 00:01:52 00:01:53 31,9 -7,77
61,00 02:00:23 00:02:56 00:02:57 20,4 26,23
62,00 02:02:44 00:02:20 00:02:20 25,7 -9,21
63,00 02:04:17 00:01:33 00:01:33 38,7 -26,86
64,00 02:06:27 00:02:09 00:02:10 27,7 4,95
65,00 02:08:28 00:02:01 00:02:02 29,6 -2,73
66,00 02:10:26 00:01:57 00:01:57 30,7 -0,44
67,00 02:12:55 00:02:29 00:02:30 24,1 8,09
68,00 02:14:35 00:01:39 00:01:40 36,2 -13,63
69,00 02:16:32 00:01:57 00:01:58 30,5 -5,16
70,00 02:18:24 00:01:51 00:01:52 32,2 -1,48
71,00 02:20:25 00:02:00 00:02:00 30,0 -0,48
72,00 02:22:28 00:02:02 00:02:03 29,3 -5,05
73,00 02:24:31 00:02:03 00:02:04 29,1 5,41
74,00 02:27:04 00:02:33 00:02:33 23,5 17,65
75,00 02:28:55 00:01:50 00:01:51 32,5 -11,90
76,00 02:30:44 00:01:48 00:01:49 33,1 -15,07
77,00 02:32:31 00:01:47 00:01:47 33,6 0,46
78,00 02:34:21 00:01:49 00:01:50 32,8 2,34
79,00 02:36:02 00:01:41 00:01:41 35,6 -1,67
80,00 02:37:58 00:01:55 00:01:56 31,1 -1,58
81,00 02:40:23 00:02:25 00:02:26 24,7 30,64
82,00 02:42:29 00:02:05 00:02:06 28,6 6,29
83,00 02:43:49 00:01:19 00:01:20 45,2 -14,56
84,00 02:45:36 00:01:46 00:01:47 33,7 1,63
85,00 02:47:13 00:01:37 00:01:38 36,8 -12,94
86,00 02:48:49 00:01:35 00:01:36 37,6 5,37
87,00 02:50:25 00:01:35 00:01:36 37,6 2,53
88,00 02:52:00 00:01:34 00:01:35 37,9 0,57
89,00 02:53:34 00:01:34 00:01:34 38,2 0,63
90,00 02:55:09 00:01:34 00:01:35 37,9 0,14
91,00 02:56:44 00:01:34 00:01:35 38,1 7,78
92,00 02:58:20 00:01:36 00:01:36 37,5 -3,92
93,00 02:59:59 00:01:39 00:01:40 36,1 5,84
94,00 03:01:40 00:01:40 00:01:40 35,9 -0,77
95,00 03:03:20 00:01:40 00:01:41 35,8 0,36
96,00 03:05:04 00:01:43 00:01:44 34,8 6,62
97,00 03:07:08 00:02:03 00:02:04 29,1 -1,59
98,00 03:08:46 00:01:38 00:01:38 36,7 0,13
99,00 03:10:11 00:01:24 00:01:25 42,5 2,56
100,00 03:11:42 00:01:31 00:01:31 39,5 7,34
101,00 03:13:14 00:01:32 00:01:33 38,9 0,84
102,00 03:14:51 00:01:37 00:01:37 37,1 0,04
103,00 03:16:29 00:01:37 00:01:37 37,0 0,22
104,00 03:18:15 00:01:46 00:01:47 33,8 4,14
105,00 03:19:54 00:01:38 00:01:39 36,4 0,27
106,00 03:21:29 00:01:35 00:01:35 37,8 -0,08
107,00 03:23:06 00:01:36 00:01:37 37,3 4,96
108,00 03:24:51 00:01:45 00:01:45 34,2 -1,81
109,00 03:26:41 00:01:49 00:01:49 32,9 6,00
110,00 03:28:35 00:01:54 00:01:55 31,4 12,42
111,00 03:30:27 00:01:51 00:01:52 32,2 -12,44
112,00 03:32:32 00:02:05 00:02:05 28,8 1,09
112,79 03:34:15 00:01:42 00:02:09 27,9 -0,15